Time;durP1;ratioP1;P1;durP2;ratioP2;P2;SDS_P1;SDS_P2;PMS_P1;PMS_P2;Temp;Humidity;BMP_temperature;BMP_pressure;BME280_temperature;BME280_humidity;BME280_pressure;Samples;Min_cycle;Max_cycle;Signal;HPM_P1;HPM_P2
2022/08/31 00:05:08;;;;;;;3.93;2.10;;;16.30;99.90;;;;;;5072451;28;20484;-49
2022/08/31 00:07:35;;;;;;;3.47;2.40;;;16.20;99.90;;;;;;5072378;28;20926;-51
2022/08/31 00:10:10;;;;;;;3.30;2.00;;;16.20;99.90;;;;;;5071897;28;20441;-51
2022/08/31 00:12:37;;;;;;;6.33;2.00;;;16.20;99.90;;;;;;5072131;28;20480;-51
2022/08/31 00:15:04;;;;;;;3.37;1.90;;;16.10;99.90;;;;;;5072411;28;20426;-52
2022/08/31 00:17:32;;;;;;;4.13;1.57;;;16.00;99.90;;;;;;5072288;28;20449;-51
2022/08/31 00:19:59;;;;;;;3.80;2.50;;;16.50;99.90;;;;;;5071876;28;20434;-51
2022/08/31 00:22:25;;;;;;;7.80;2.80;;;16.40;99.90;;;;;;5071904;28;20993;-51
2022/08/31 00:24:52;;;;;;;3.77;2.40;;;16.00;99.90;;;;;;5071971;28;20442;-52
2022/08/31 00:27:20;;;;;;;4.10;2.73;;;16.00;99.90;;;;;;5072005;28;20438;-50
2022/08/31 00:29:47;;;;;;;4.00;2.20;;;16.00;99.90;;;;;;5071794;28;20454;-50
2022/08/31 00:32:14;;;;;;;2.80;2.00;;;15.90;99.90;;;;;;5070421;28;20563;-50
2022/08/31 00:34:42;;;;;;;4.10;2.87;;;15.90;99.90;;;;;;5071921;28;20446;-50
2022/08/31 00:37:08;;;;;;;4.73;2.00;;;15.90;99.90;;;;;;5071890;28;20491;-50
2022/08/31 00:39:35;;;;;;;5.23;2.27;;;16.40;99.90;;;;;;5070130;28;20984;-50
2022/08/31 00:42:04;;;;;;;3.83;2.47;;;15.90;99.90;;;;;;5072204;28;20449;-50
2022/08/31 00:44:30;;;;;;;2.40;1.67;;;15.80;99.90;;;;;;5071810;28;20522;-50
2022/08/31 00:46:57;;;;;;;3.53;2.27;;;15.80;99.90;;;;;;5070071;28;20449;-50
2022/08/31 00:49:28;;;;;;;7.33;2.60;;;15.70;99.90;;;;;;5071581;28;20839;-51
2022/08/31 00:51:59;;;;;;;4.20;2.20;;;15.80;99.90;;;;;;5071617;28;20479;-51
2022/08/31 00:54:30;;;;;;;3.50;2.27;;;15.70;99.90;;;;;;5070237;28;20458;-50
2022/08/31 00:56:58;;;;;;;4.20;2.20;;;15.90;99.90;;;;;;5071755;28;20425;-50
2022/08/31 00:59:25;;;;;;;4.40;2.37;;;15.60;99.90;;;;;;5070330;28;20511;-51
2022/08/31 01:01:52;;;;;;;3.97;2.40;;;15.50;99.90;;;;;;5071582;28;20462;-51
2022/08/31 01:04:19;;;;;;;4.37;3.00;;;15.50;99.90;;;;;;5071545;28;20426;-50
2022/08/31 01:06:46;;;;;;;6.20;3.17;;;15.70;99.90;;;;;;5070053;28;20460;-51
2022/08/31 01:09:15;;;;;;;4.70;2.77;;;15.70;99.90;;;;;;5069895;28;21013;-51
2022/08/31 01:11:43;;;;;;;8.03;2.63;;;15.40;99.90;;;;;;5071528;28;20481;-51
2022/08/31 01:14:11;;;;;;;5.30;2.57;;;15.40;99.90;;;;;;5071776;28;20433;-51
2022/08/31 01:16:42;;;;;;;2.77;2.00;;;15.40;99.90;;;;;;5070242;28;20450;-50
2022/08/31 01:19:17;;;;;;;4.53;2.23;;;15.40;99.90;;;;;;5070126;28;20449;-52
2022/08/31 01:21:50;;;;;;;3.43;1.70;;;15.40;99.90;;;;;;5071556;28;20965;-49
2022/08/31 01:24:20;;;;;;;3.80;2.17;;;15.40;99.90;;;;;;5070153;28;20450;-50
2022/08/31 01:26:47;;;;;;;3.47;2.20;;;15.40;99.90;;;;;;5071386;28;20440;-51
2022/08/31 01:29:14;;;;;;;4.13;1.67;;;15.70;99.90;;;;;;5070925;28;20433;-50
2022/08/31 01:31:43;;;;;;;7.70;1.83;;;15.50;99.90;;;;;;5071002;28;20450;-52
2022/08/31 01:34:10;;;;;;;3.37;1.80;;;15.70;99.90;;;;;;5070214;28;20514;-50
2022/08/31 01:36:39;;;;;;;3.83;2.03;;;15.50;99.90;;;;;;5070026;28;20428;-50
2022/08/31 01:39:07;;;;;;;4.80;2.17;;;15.50;99.90;;;;;;5069474;28;20445;-51
2022/08/31 01:41:40;;;;;;;2.73;1.80;;;15.40;99.90;;;;;;5071272;28;20516;-50
2022/08/31 01:44:07;;;;;;;4.10;2.00;;;15.60;99.90;;;;;;5070013;28;20444;-50
2022/08/31 01:46:33;;;;;;;5.50;2.10;;;15.60;99.90;;;;;;5069915;28;20461;-50
2022/08/31 01:49:00;;;;;;;5.13;2.20;;;15.80;99.90;;;;;;5070805;28;20436;-50
2022/08/31 01:51:27;;;;;;;6.40;2.20;;;15.70;99.90;;;;;;5069773;28;20481;-51
2022/08/31 01:53:54;;;;;;;5.20;2.10;;;15.70;99.90;;;;;;5071161;28;20480;-51
2022/08/31 01:56:25;;;;;;;3.60;2.10;;;15.70;99.90;;;;;;5069908;28;20441;-51
2022/08/31 01:58:53;;;;;;;4.57;2.27;;;15.80;99.90;;;;;;5071284;28;20500;-50
2022/08/31 02:01:41;;;;;;;3.30;2.60;;;15.60;99.90;;;;;;5075052;28;20449;-50
2022/08/31 02:04:09;;;;;;;5.27;2.87;;;15.80;99.90;;;;;;5074989;28;20446;-50
2022/08/31 02:06:37;;;;;;;4.00;2.80;;;16.10;99.90;;;;;;5073413;28;20459;-49
2022/08/31 02:09:05;;;;;;;5.27;2.90;;;15.80;99.90;;;;;;5073077;28;20444;-50
2022/08/31 02:11:32;;;;;;;5.93;2.67;;;15.80;99.90;;;;;;5073381;28;20569;-50
2022/08/31 02:14:00;;;;;;;3.20;2.50;;;15.90;99.90;;;;;;5074843;28;20478;-50
2022/08/31 02:16:27;;;;;;;4.47;2.60;;;15.80;99.90;;;;;;5073648;28;20442;-50
2022/08/31 02:18:54;;;;;;;3.73;2.50;;;15.80;99.90;;;;;;5073482;28;20568;-50
2022/08/31 02:21:21;;;;;;;3.03;2.53;;;15.80;99.90;;;;;;5074249;28;20481;-49
2022/08/31 02:23:47;;;;;;;3.93;2.63;;;15.70;99.90;;;;;;5073692;28;20456;-51
2022/08/31 02:26:14;;;;;;;5.13;2.00;;;15.80;99.90;;;;;;5075096;28;20426;-51
2022/08/31 02:28:44;;;;;;;3.50;2.50;;;15.70;99.90;;;;;;5072924;28;20630;-50
2022/08/31 02:31:13;;;;;;;5.17;1.97;;;16.00;99.90;;;;;;5073025;28;20465;-50
2022/08/31 02:33:46;;;;;;;3.00;2.40;;;15.70;99.90;;;;;;5073143;28;20596;-51
2022/08/31 02:36:13;;;;;;;2.80;1.90;;;15.70;99.90;;;;;;5074235;28;20441;-50
2022/08/31 02:38:40;;;;;;;4.17;2.00;;;15.70;99.90;;;;;;5073575;28;20465;-50
2022/08/31 02:41:07;;;;;;;3.73;1.87;;;15.70;99.90;;;;;;5074129;28;20434;-50
2022/08/31 02:43:37;;;;;;;5.43;1.87;;;15.50;99.90;;;;;;5072837;28;21059;-50
2022/08/31 02:46:03;;;;;;;5.27;1.93;;;15.50;99.90;;;;;;5072826;28;20442;-50
2022/08/31 02:48:37;;;;;;;2.90;2.00;;;15.70;99.90;;;;;;5072348;28;20501;-50
2022/08/31 02:51:07;;;;;;;2.40;1.80;;;15.50;99.90;;;;;;5072371;28;20446;-51
2022/08/31 02:53:35;;;;;;;2.93;1.80;;;15.80;99.90;;;;;;5072394;28;20485;-50
2022/08/31 02:56:02;;;;;;;2.90;1.90;;;15.50;99.90;;;;;;5072249;28;20442;-49
2022/08/31 02:58:29;;;;;;;3.27;1.63;;;15.50;99.90;;;;;;5072126;28;20813;-50
2022/08/31 03:00:56;;;;;;;2.83;1.57;;;15.50;99.90;;;;;;5072304;28;20889;-50
2022/08/31 03:03:23;;;;;;;7.27;2.33;;;15.40;99.90;;;;;;5072085;28;20544;-50
2022/08/31 03:05:51;;;;;;;5.70;2.10;;;15.40;99.90;;;;;;5072122;28;20446;-52
2022/08/31 03:08:18;;;;;;;2.90;1.67;;;15.40;99.90;;;;;;5072177;28;20610;-50
2022/08/31 03:10:47;;;;;;;2.43;1.77;;;15.40;99.90;;;;;;5071872;28;20460;-50
2022/08/31 03:13:14;;;;;;;4.83;2.23;;;15.90;99.90;;;;;;5071985;28;20477;-49
2022/08/31 03:15:41;;;;;;;4.53;2.30;;;15.50;99.90;;;;;;5073668;28;20437;-50
2022/08/31 03:18:09;;;;;;;6.70;2.10;;;15.40;99.90;;;;;;5072338;28;20460;-50
2022/08/31 03:20:35;;;;;;;4.27;2.33;;;15.80;99.90;;;;;;5071596;28;20950;-50
2022/08/31 03:23:04;;;;;;;7.33;1.90;;;15.40;99.90;;;;;;5073236;28;20477;-50
2022/08/31 03:25:31;;;;;;;3.37;2.10;;;15.10;99.90;;;;;;5072037;28;20462;-50
2022/08/31 03:27:58;;;;;;;8.63;2.50;;;15.40;99.90;;;;;;5071839;28;20485;-51
2022/08/31 03:30:25;;;;;;;2.90;2.40;;;15.30;99.90;;;;;;5071614;28;20453;-51
2022/08/31 03:33:02;;;;;;;6.97;2.70;;;15.30;99.90;;;;;;5071470;28;20485;-49
2022/08/31 03:35:30;;;;;;;4.10;2.63;;;15.30;99.90;;;;;;5071773;28;20533;-51
2022/08/31 03:37:56;;;;;;;6.97;3.10;;;15.60;99.90;;;;;;5073001;28;20507;-50
2022/08/31 03:40:24;;;;;;;5.37;3.17;;;15.40;99.90;;;;;;5072692;28;20440;-50
2022/08/31 03:42:51;;;;;;;10.23;2.80;;;15.20;99.90;;;;;;5072683;28;20473;-51
2022/08/31 03:45:18;;;;;;;5.20;2.70;;;15.10;99.90;;;;;;5071278;28;20544;-51
2022/08/31 03:47:46;;;;;;;3.97;2.63;;;15.20;99.90;;;;;;5071641;28;20461;-51
2022/08/31 03:50:14;;;;;;;4.60;3.50;;;15.20;99.90;;;;;;5071326;28;20954;-51
2022/08/31 03:52:52;;;;;;;3.50;2.90;;;15.00;99.90;;;;;;5071358;28;20568;-50
2022/08/31 03:55:20;;;;;;;4.97;2.60;;;15.20;99.90;;;;;;5071560;28;20453;-51
2022/08/31 03:57:48;;;;;;;3.30;2.53;;;15.10;99.90;;;;;;5071248;28;20527;-49
2022/08/31 04:00:16;;;;;;;5.37;2.93;;;15.00;99.90;;;;;;5070866;28;20438;-50
2022/08/31 04:02:46;;;;;;;4.67;2.70;;;15.00;99.90;;;;;;5071360;28;20457;-51
2022/08/31 04:05:34;;;;;;;5.53;2.93;;;15.00;99.90;;;;;;5072611;28;20440;-49
2022/08/31 04:08:19;;;;;;;4.07;3.00;;;15.00;99.90;;;;;;5072401;28;20499;-50
2022/08/31 04:11:09;;;;;;;3.83;2.97;;;15.00;99.90;;;;;;5072929;28;20581;-50
2022/08/31 04:13:55;;;;;;;4.90;2.90;;;15.00;99.90;;;;;;5072514;28;20472;-50
2022/08/31 04:16:23;;;;;;;4.47;2.70;;;15.00;99.90;;;;;;5072433;28;20451;-50
2022/08/31 04:19:10;;;;;;;6.07;2.70;;;14.80;99.90;;;;;;5072294;28;20426;-50
2022/08/31 04:21:46;;;;;;;6.00;2.67;;;14.70;99.90;;;;;;5070569;28;20481;-50
2022/08/31 04:24:12;;;;;;;4.80;2.60;;;14.90;99.90;;;;;;5070804;28;20533;-51
2022/08/31 04:26:40;;;;;;;3.73;3.23;;;14.80;99.90;;;;;;5070663;28;20450;-50
2022/08/31 04:29:08;;;;;;;5.57;3.80;;;14.90;99.90;;;;;;5070447;28;20457;-51
2022/08/31 04:31:37;;;;;;;9.73;7.00;;;14.90;99.90;;;;;;5070542;28;20466;-50
2022/08/31 04:34:04;;;;;;;6.50;4.00;;;15.00;99.90;;;;;;5071843;28;20484;-51
2022/08/31 04:36:30;;;;;;;4.93;3.00;;;14.90;99.90;;;;;;5071873;28;20436;-50
2022/08/31 04:39:01;;;;;;;6.50;4.53;;;14.90;99.90;;;;;;5070406;28;20446;-49
2022/08/31 04:41:30;;;;;;;6.73;3.00;;;14.90;99.90;;;;;;5069919;28;20465;-50
2022/08/31 04:43:59;;;;;;;6.17;3.70;;;14.90;99.90;;;;;;5070464;28;20455;-50
2022/08/31 04:46:28;;;;;;;5.47;3.40;;;15.10;99.90;;;;;;5070622;28;20445;-50
2022/08/31 04:48:55;;;;;;;7.00;3.97;;;14.90;99.90;;;;;;5071445;28;20808;-51
2022/08/31 04:51:24;;;;;;;6.00;3.50;;;14.80;99.90;;;;;;5071677;28;20446;-49
2022/08/31 04:53:52;;;;;;;6.20;3.67;;;14.90;99.90;;;;;;5070113;28;20474;-50
2022/08/31 04:56:21;;;;;;;5.10;3.40;;;14.90;99.90;;;;;;5071740;28;20429;-50
2022/08/31 04:58:50;;;;;;;5.27;3.33;;;15.40;99.90;;;;;;5070027;28;20432;-51
2022/08/31 05:01:19;;;;;;;5.47;3.37;;;14.90;99.90;;;;;;5070177;28;21006;-50
2022/08/31 05:04:06;;;;;;;7.30;3.80;;;14.30;99.90;;;;;;5071600;28;20417;-51
2022/08/31 05:06:35;;;;;;;6.13;3.67;;;14.70;99.90;;;;;;5070178;28;20458;-50
2022/08/31 05:09:05;;;;;;;7.43;3.60;;;14.70;99.90;;;;;;5069605;28;20479;-51
2022/08/31 05:11:33;;;;;;;10.50;4.60;;;15.20;99.90;;;;;;5069931;28;20551;-51
2022/08/31 05:14:01;;;;;;;5.23;2.87;;;15.40;99.90;;;;;;5069711;28;21019;-51
2022/08/31 05:16:30;;;;;;;7.90;3.50;;;14.80;99.90;;;;;;5070159;28;20480;-51
2022/08/31 05:18:57;;;;;;;5.27;3.30;;;14.90;99.90;;;;;;5069643;28;20458;-51
2022/08/31 05:21:28;;;;;;;8.10;3.30;;;15.00;99.90;;;;;;5069831;28;20481;-51
2022/08/31 05:23:57;;;;;;;4.20;2.83;;;15.40;99.90;;;;;;5069913;28;20452;-51
2022/08/31 05:26:26;;;;;;;7.07;3.53;;;15.00;99.90;;;;;;5069855;28;20808;-50
2022/08/31 05:28:54;;;;;;;3.83;3.10;;;15.10;99.90;;;;;;5069604;28;20457;-49
2022/08/31 05:31:22;;;;;;;5.07;3.40;;;15.30;99.90;;;;;;5069742;28;21001;-51
2022/08/31 05:33:51;;;;;;;3.87;3.00;;;15.10;99.90;;;;;;5071445;28;20469;-51
2022/08/31 05:36:25;;;;;;;6.17;3.43;;;15.50;99.90;;;;;;5073324;28;20537;-52
2022/08/31 05:38:52;;;;;;;8.83;3.20;;;15.40;99.90;;;;;;5072969;28;20492;-49
2022/08/31 05:41:19;;;;;;;4.20;2.73;;;15.60;99.90;;;;;;5073552;28;20469;-52
2022/08/31 05:43:46;;;;;;;3.50;2.30;;;15.70;99.90;;;;;;5074999;28;20429;-50
2022/08/31 05:46:14;;;;;;;6.50;3.07;;;16.20;99.90;;;;;;5074465;28;20515;-52
2022/08/31 05:48:42;;;;;;;5.40;2.77;;;15.90;99.90;;;;;;5073163;28;20458;-51
2022/08/31 05:51:14;;;;;;;15.40;3.43;;;16.00;99.90;;;;;;5073359;28;20996;-51
2022/08/31 05:53:43;;;;;;;9.40;2.80;;;16.10;99.90;;;;;;5073184;28;20469;-52
2022/08/31 05:56:13;;;;;;;6.23;2.30;;;16.10;99.90;;;;;;5073613;28;20870;-51
2022/08/31 05:58:42;;;;;;;3.03;1.73;;;16.20;99.90;;;;;;5074864;28;20458;-51
2022/08/31 06:01:13;;;;;;;3.23;2.07;;;16.30;99.90;;;;;;5073662;28;20871;-51
2022/08/31 06:04:09;;;;;;;5.40;1.90;;;16.40;99.90;;;;;;5065774;28;20442;-51
2022/08/31 06:06:37;;;;;;;7.00;2.20;;;16.50;99.90;;;;;;5073322;28;20545;-51
2022/08/31 06:09:07;;;;;;;3.83;1.90;;;16.60;99.90;;;;;;5073223;28;20460;-50
2022/08/31 06:11:34;;;;;;;2.90;1.70;;;16.60;99.90;;;;;;5072948;28;20977;-51
2022/08/31 06:14:04;;;;;;;2.30;1.50;;;16.70;99.90;;;;;;5073368;28;20990;-49
2022/08/31 06:16:32;;;;;;;6.57;1.93;;;16.70;99.90;;;;;;5073225;28;20563;-51
2022/08/31 06:19:02;;;;;;;3.70;1.60;;;16.70;99.90;;;;;;5072747;28;20968;-50
2022/08/31 06:21:32;;;;;;;2.80;1.40;;;17.10;99.90;;;;;;5073323;28;20480;-53
2022/08/31 06:23:59;;;;;;;3.17;1.77;;;17.00;99.90;;;;;;5073576;28;20479;-50
2022/08/31 06:26:29;;;;;;;3.73;1.80;;;16.70;99.90;;;;;;5073675;28;20780;-50
2022/08/31 06:28:58;;;;;;;4.00;2.03;;;17.00;99.90;;;;;;5072836;28;20808;-50
2022/08/31 06:31:33;;;;;;;3.50;1.70;;;16.90;99.90;;;;;;5073022;28;20524;-50
2022/08/31 06:34:01;;;;;;;2.20;1.40;;;17.10;99.90;;;;;;5073299;28;20495;-51
2022/08/31 06:36:49;;;;;;;2.93;1.40;;;17.20;99.90;;;;;;5070055;28;20441;-51
2022/08/31 06:39:34;;;;;;;3.43;1.60;;;17.40;99.90;;;;;;5073980;28;20451;-51
2022/08/31 06:42:21;;;;;;;7.90;1.70;;;17.70;99.90;;;;;;5074273;28;20990;-51
2022/08/31 06:45:03;;;;;;;3.97;1.30;;;17.40;99.90;;;;;;5073553;28;20546;-52
2022/08/31 06:47:49;;;;;;;4.70;1.10;;;17.30;99.90;;;;;;5073926;28;20431;-51
2022/08/31 06:50:18;;;;;;;3.30;1.50;;;18.00;99.90;;;;;;5072256;28;20456;-51
2022/08/31 06:52:47;;;;;;;5.20;1.80;;;17.60;99.90;;;;;;5072684;28;20474;-52
2022/08/31 06:55:20;;;;;;;2.97;1.53;;;17.60;99.90;;;;;;5072479;28;20533;-51
2022/08/31 06:58:08;;;;;;;2.47;1.00;;;17.60;99.90;;;;;;5073727;28;20440;-50
2022/08/31 07:00:53;;;;;;;2.80;1.23;;;17.90;99.90;;;;;;5073937;28;20775;-51
2022/08/31 07:03:33;;;;;;;5.37;1.80;;;17.70;99.90;;;;;;5072590;28;20972;-51
2022/08/31 07:06:05;;;;;;;2.00;1.40;;;17.80;99.90;;;;;;5072402;28;20440;-51
2022/08/31 07:08:32;;;;;;;2.20;1.33;;;17.80;99.90;;;;;;5072157;28;20457;-51
2022/08/31 07:11:00;;;;;;;3.20;1.63;;;17.90;99.90;;;;;;5072509;28;21022;-51
2022/08/31 07:13:28;;;;;;;3.60;1.43;;;17.90;99.90;;;;;;5071923;28;20452;-51
2022/08/31 07:16:03;;;;;;;1.80;1.00;;;18.00;99.90;;;;;;5072360;28;20464;-51
2022/08/31 07:18:33;;;;;;;4.03;1.27;;;18.00;99.90;;;;;;5071197;28;20460;-50
2022/08/31 07:21:08;;;;;;;4.30;1.40;;;18.00;99.90;;;;;;5071969;28;20448;-51
2022/08/31 07:23:35;;;;;;;3.77;1.73;;;18.10;99.90;;;;;;5071605;28;20453;-51
2022/08/31 07:26:11;;;;;;;3.67;1.20;;;18.20;99.90;;;;;;5071816;28;20546;-50
2022/08/31 07:28:42;;;;;;;7.80;1.40;;;18.10;99.90;;;;;;5071261;28;20548;-51
2022/08/31 07:31:10;;;;;;;3.13;1.50;;;18.20;99.90;;;;;;5071498;28;20472;-51
2022/08/31 07:33:37;;;;;;;3.63;1.10;;;18.20;99.90;;;;;;5071755;28;20512;-50
2022/08/31 07:36:10;;;;;;;7.17;1.30;;;18.50;99.90;;;;;;5072040;28;20449;-51
2022/08/31 07:44:30;;;;;;;4.40;1.17;;;18.30;99.90;;;;;;5071812;28;20440;-50
2022/08/31 07:46:57;;;;;;;2.87;1.80;;;18.30;99.90;;;;;;5071226;28;20530;-51
2022/08/31 07:49:25;;;;;;;4.07;1.10;;;18.20;99.90;;;;;;5070837;28;20543;-51
2022/08/31 07:52:20;;;;;;;1.80;1.13;;;18.40;99.90;;;;;;5071348;28;20501;-52
2022/08/31 07:55:17;;;;;;;3.20;0.90;;;18.40;99.90;;;;;;5053054;28;20950;-51
2022/08/31 07:57:59;;;;;;;2.70;1.30;;;18.50;99.90;;;;;;5070045;28;20449;-51
2022/08/31 08:00:31;;;;;;;2.20;0.97;;;18.50;99.90;;;;;;5072258;28;20467;-51
2022/08/31 08:03:06;;;;;;;5.90;0.97;;;18.40;99.90;;;;;;5071548;28;20496;-51
2022/08/31 08:05:40;;;;;;;2.80;1.30;;;18.50;99.90;;;;;;5071099;28;20557;-50
2022/08/31 08:08:25;;;;;;;1.93;1.03;;;19.00;99.90;;;;;;5072685;28;20762;-51
2022/08/31 08:11:05;;;;;;;7.03;1.00;;;18.20;99.60;;;;;;5071287;28;20828;-51
2022/08/31 08:13:43;;;;;;;1.50;0.90;;;18.70;99.30;;;;;;5072365;28;20429;-51
2022/08/31 08:16:23;;;;;;;3.03;1.20;;;18.70;99.20;;;;;;5072512;28;20912;-51
2022/08/31 08:19:23;;;;;;;2.07;0.97;;;18.50;99.00;;;;;;5048807;28;20500;-50
2022/08/31 08:21:50;;;;;;;4.00;1.40;;;18.80;99.20;;;;;;5070100;28;20481;-51
2022/08/31 08:24:21;;;;;;;2.27;0.90;;;18.80;99.10;;;;;;5070069;28;20442;-52
2022/08/31 08:27:16;;;;;;;4.63;1.03;;;18.80;99.10;;;;;;5055792;28;20449;-52
2022/08/31 08:29:51;;;;;;;3.47;1.27;;;18.90;98.30;;;;;;5070257;28;20546;-51
2022/08/31 08:32:24;;;;;;;2.17;0.70;;;18.70;97.90;;;;;;5070594;28;20950;-50
2022/08/31 08:34:52;;;;;;;1.53;1.13;;;19.20;98.00;;;;;;5070307;28;20504;-51
2022/08/31 08:37:19;;;;;;;4.57;1.07;;;19.20;98.20;;;;;;5070649;28;20454;-51
2022/08/31 08:39:46;;;;;;;2.33;0.80;;;19.30;98.20;;;;;;5069994;28;20461;-53
2022/08/31 08:42:37;;;;;;;3.80;0.70;;;19.30;97.80;;;;;;5069969;28;20570;-50
2022/08/31 08:45:05;;;;;;;2.37;1.13;;;19.40;97.70;;;;;;5070393;28;20477;-51
2022/08/31 08:47:36;;;;;;;3.40;1.40;;;19.50;97.80;;;;;;5070161;28;20783;-49
2022/08/31 08:50:06;;;;;;;2.43;1.10;;;19.80;97.80;;;;;;5069687;28;20446;-51
2022/08/31 08:52:40;;;;;;;5.37;1.30;;;19.60;97.80;;;;;;5069904;28;20477;-51
2022/08/31 08:55:10;;;;;;;2.70;1.30;;;19.70;97.40;;;;;;5070057;28;20500;-50
2022/08/31 08:57:41;;;;;;;3.97;1.10;;;19.80;97.70;;;;;;5070543;28;20537;-51
2022/08/31 09:00:11;;;;;;;5.90;1.50;;;19.90;97.30;;;;;;5069830;28;20450;-51
2022/08/31 09:02:46;;;;;;;5.43;1.30;;;20.00;96.80;;;;;;5070275;28;20474;-51
2022/08/31 09:05:37;;;;;;;2.57;1.60;;;19.60;96.90;;;;;;5070526;28;20488;-51
2022/08/31 09:08:41;;;;;;;1.83;1.07;;;20.30;96.70;;;;;;5069740;28;20996;-50
2022/08/31 09:11:16;;;;;;;11.63;1.57;;;20.20;96.20;;;;;;5070045;28;20451;-51
2022/08/31 09:13:54;;;;;;;4.43;1.50;;;20.20;96.20;;;;;;5069654;28;20446;-51
2022/08/31 09:16:32;;;;;;;1.77;0.90;;;20.40;96.30;;;;;;5070436;28;20496;-51
2022/08/31 09:19:04;;;;;;;3.20;0.80;;;20.20;96.00;;;;;;5069922;28;20448;-51
2022/08/31 09:21:35;;;;;;;3.33;1.30;;;20.00;95.60;;;;;;5069817;28;20495;-51
2022/08/31 09:24:06;;;;;;;1.53;0.93;;;19.90;95.70;;;;;;5069685;28;20983;-51
2022/08/31 09:26:57;;;;;;;2.33;1.10;;;19.90;95.30;;;;;;5070072;28;20460;-51
2022/08/31 09:29:34;;;;;;;1.70;1.00;;;19.90;95.30;;;;;;5071582;28;20478;-51
2022/08/31 09:32:04;;;;;;;2.90;1.00;;;19.60;95.00;;;;;;5071843;28;20830;-51
2022/08/31 09:34:36;;;;;;;6.77;1.20;;;19.90;95.00;;;;;;5070623;28;20558;-51
2022/08/31 09:37:15;;;;;;;2.90;0.80;;;19.90;94.80;;;;;;5071721;28;20793;-52
2022/08/31 09:39:46;;;;;;;3.20;1.10;;;20.10;94.40;;;;;;5071672;28;20443;-51
2022/08/31 09:42:18;;;;;;;3.47;1.40;;;20.10;94.20;;;;;;5071721;28;20458;-50
2022/08/31 09:44:49;;;;;;;1.43;0.80;;;20.20;94.10;;;;;;5071625;28;20818;-52
2022/08/31 09:47:41;;;;;;;2.60;1.13;;;20.20;94.00;;;;;;5071275;28;20814;-51
2022/08/31 09:50:10;;;;;;;5.00;1.30;;;20.30;94.10;;;;;;5070643;28;20444;-49
2022/08/31 09:55:26;;;;;;;2.43;1.47;;;20.30;93.80;;;;;;5071229;28;20955;-50
2022/08/31 09:57:57;;;;;;;3.57;1.37;;;20.40;93.80;;;;;;5071564;28;20537;-51
2022/08/31 10:00:35;;;;;;;3.77;1.10;;;20.40;93.70;;;;;;5070959;28;20430;-49
2022/08/31 10:03:12;;;;;;;1.63;0.93;;;20.40;93.30;;;;;;5071531;28;20542;-51
2022/08/31 10:05:43;;;;;;;1.03;0.70;;;20.40;93.20;;;;;;5071387;28;20463;-52
2022/08/31 10:08:25;;;;;;;2.17;1.27;;;20.30;93.10;;;;;;5071479;28;20441;-51
2022/08/31 10:10:51;;;;;;;3.93;1.00;;;20.30;92.30;;;;;;5069739;28;20791;-51
2022/08/31 10:13:22;;;;;;;2.07;1.00;;;20.30;92.40;;;;;;5070584;28;20436;-51
2022/08/31 10:15:54;;;;;;;1.87;0.87;;;20.30;92.20;;;;;;5069637;28;20995;-51
2022/08/31 10:18:28;;;;;;;2.00;1.00;;;20.40;92.30;;;;;;5070872;28;20440;-48
2022/08/31 10:21:04;;;;;;;2.63;1.30;;;20.40;92.00;;;;;;5073323;28;20434;-50
2022/08/31 10:23:36;;;;;;;1.50;0.80;;;20.40;91.20;;;;;;5089098;22;20512;-51
2022/08/31 10:26:10;;;;;;;2.23;0.90;;;20.60;91.30;;;;;;5074066;28;20439;-49
2022/08/31 10:28:42;;;;;;;2.83;0.90;;;20.70;91.40;;;;;;5073961;28;20438;-50
2022/08/31 10:31:19;;;;;;;1.70;0.73;;;20.80;91.10;;;;;;5074191;28;20951;-49
2022/08/31 10:36:39;;;;;;;3.03;1.63;;;20.70;91.00;;;;;;5053614;28;20526;-49
2022/08/31 10:39:27;;;;;;;2.40;1.10;;;20.50;90.70;;;;;;5053467;28;20424;-50
2022/08/31 10:41:54;;;;;;;2.47;1.50;;;21.00;90.90;;;;;;5053763;28;20457;-50
2022/08/31 10:44:31;;;;;;;1.73;0.80;;;20.70;90.40;;;;;;5053797;28;20436;-50
2022/08/31 10:47:01;;;;;;;2.13;1.20;;;20.90;90.20;;;;;;5053473;28;20447;-50
2022/08/31 10:49:29;;;;;;;1.93;1.10;;;20.80;90.20;;;;;;5053581;28;20507;-50
2022/08/31 10:52:04;;;;;;;1.67;0.90;;;20.80;90.20;;;;;;5035545;28;20900;-50
2022/08/31 10:54:40;;;;;;;3.40;1.13;;;20.90;90.00;;;;;;5053622;28;20467;-50
2022/08/31 10:57:20;;;;;;;2.03;1.20;;;21.10;88.90;;;;;;5053349;28;20427;-50
2022/08/31 10:59:54;;;;;;;1.50;0.83;;;21.20;86.70;;;;;;5053227;28;20448;-49
2022/08/31 11:02:38;;;;;;;2.53;1.03;;;21.30;86.70;;;;;;5053213;28;20464;-50
2022/08/31 11:05:18;;;;;;;2.40;1.03;;;21.40;86.60;;;;;;5053850;28;20471;-50
2022/08/31 11:07:54;;;;;;;3.00;1.13;;;21.50;86.40;;;;;;5053363;28;20442;-50
2022/08/31 11:10:26;;;;;;;2.70;0.80;;;21.70;86.20;;;;;;5035186;28;20461;-50
2022/08/31 11:12:58;;;;;;;4.40;0.90;;;21.50;84.80;;;;;;5053511;28;20514;-50
2022/08/31 11:15:42;;;;;;;3.10;1.13;;;21.40;84.50;;;;;;5053687;28;20828;-50
2022/08/31 11:18:44;;;;;;;3.63;1.27;;;21.30;83.40;;;;;;5035282;28;20458;-50
2022/08/31 11:21:45;;;;;;;3.80;1.80;;;21.10;82.70;;;;;;5042686;28;20982;-50
2022/08/31 11:24:48;;;;;;;11.60;1.20;;;21.80;84.80;;;;;;5052906;28;20843;-50
2022/08/31 11:27:22;;;;;;;2.30;1.00;;;21.30;84.40;;;;;;5030923;28;21012;-50
2022/08/31 11:29:55;;;;;;;1.97;1.03;;;21.30;85.10;;;;;;5052665;28;20465;-50
2022/08/31 11:32:25;;;;;;;2.40;1.13;;;21.40;85.80;;;;;;5052538;28;20467;-50
2022/08/31 11:34:55;;;;;;;3.43;1.30;;;21.40;85.50;;;;;;5053019;28;20577;-50
2022/08/31 11:37:52;;;;;;;2.60;1.00;;;21.40;85.60;;;;;;5052752;28;20529;-50
2022/08/31 11:40:58;;;;;;;1.77;0.93;;;21.30;84.60;;;;;;5052112;28;20438;-50
2022/08/31 11:43:47;;;;;;;3.93;1.20;;;21.30;85.30;;;;;;5053040;28;20806;-50
2022/08/31 11:47:01;;;;;;;1.53;0.87;;;21.50;84.80;;;;;;5052388;28;20445;-50
2022/08/31 11:49:37;;;;;;;1.90;0.77;;;21.60;84.30;;;;;;5052694;28;20433;-50
2022/08/31 11:52:09;;;;;;;1.70;1.00;;;21.50;83.30;;;;;;5052395;28;21067;-50
2022/08/31 11:55:12;;;;;;;1.37;0.90;;;21.50;83.20;;;;;;5052513;28;20438;-50
2022/08/31 11:58:13;;;;;;;2.00;1.00;;;21.50;82.20;;;;;;5049947;28;20484;-50
2022/08/31 12:00:48;;;;;;;2.70;1.07;;;21.50;82.50;;;;;;5047356;28;20462;-50
2022/08/31 12:03:49;;;;;;;1.70;1.00;;;21.50;82.20;;;;;;5052178;28;20464;-50
2022/08/31 12:06:59;;;;;;;2.50;0.93;;;21.40;80.50;;;;;;5052151;28;20518;-50
2022/08/31 12:09:50;;;;;;;1.70;1.30;;;21.30;81.30;;;;;;5037042;28;20871;-50
2022/08/31 12:12:37;;;;;;;2.47;1.17;;;21.50;81.30;;;;;;5052263;28;20456;-50
2022/08/31 12:15:12;;;;;;;3.97;1.07;;;21.60;81.50;;;;;;5051983;28;20477;-50
2022/08/31 12:17:50;;;;;;;1.63;0.80;;;21.60;81.10;;;;;;5051881;28;20439;-50
2022/08/31 12:20:26;;;;;;;2.93;0.70;;;21.40;80.80;;;;;;5052044;28;20434;-49
2022/08/31 12:26:20;;;;;;;2.33;0.73;;;22.00;80.80;;;;;;5051984;28;20425;-49
2022/08/31 12:29:19;;;;;;;1.77;1.10;;;21.80;80.30;;;;;;5033281;28;20450;-50
2022/08/31 12:32:08;;;;;;;2.60;1.00;;;22.10;80.40;;;;;;5051810;28;20581;-50
2022/08/31 12:34:40;;;;;;;3.37;1.33;;;22.10;78.70;;;;;;5052051;28;20434;-50
2022/08/31 12:37:24;;;;;;;3.70;1.00;;;22.40;78.70;;;;;;5051641;28;20487;-49
2022/08/31 12:40:14;;;;;;;3.37;0.70;;;22.30;76.60;;;;;;5051441;28;20445;-49
2022/08/31 12:42:50;;;;;;;1.67;1.20;;;22.40;76.20;;;;;;5050887;28;20466;-49
2022/08/31 12:45:17;;;;;;;1.73;0.90;;;22.50;75.10;;;;;;5051178;28;20437;-49
2022/08/31 12:47:55;;;;;;;2.10;1.10;;;22.40;73.50;;;;;;5051686;28;20435;-50
2022/08/31 12:50:32;;;;;;;1.80;1.00;;;22.30;72.20;;;;;;5051718;28;20433;-50
2022/08/31 12:53:28;;;;;;;2.20;0.80;;;22.40;72.50;;;;;;5051097;28;20469;-50
2022/08/31 12:56:00;;;;;;;1.50;1.10;;;22.50;72.30;;;;;;5051390;28;20513;-50
2022/08/31 12:58:49;;;;;;;3.80;1.30;;;22.40;72.40;;;;;;5049702;28;20457;-50
2022/08/31 13:01:20;;;;;;;5.10;1.23;;;22.60;71.40;;;;;;5051185;28;20440;-50
2022/08/31 13:03:50;;;;;;;1.60;0.97;;;22.40;70.80;;;;;;5051418;28;20780;-50
2022/08/31 13:06:25;;;;;;;1.63;0.90;;;22.60;71.40;;;;;;5051429;28;20461;-49
2022/08/31 13:08:53;;;;;;;1.53;0.80;;;22.20;69.90;;;;;;5050772;28;20440;-49
2022/08/31 13:11:27;;;;;;;3.53;0.90;;;22.30;70.60;;;;;;5051257;28;20476;-50
2022/08/31 13:14:07;;;;;;;1.83;1.00;;;22.30;71.00;;;;;;5050870;28;21023;-50
2022/08/31 13:16:34;;;;;;;2.90;0.87;;;22.70;71.00;;;;;;5051207;28;20576;-50
2022/08/31 13:19:04;;;;;;;2.43;0.80;;;22.50;70.60;;;;;;5050844;28;20478;-49
2022/08/31 13:21:32;;;;;;;2.63;1.20;;;22.50;70.60;;;;;;5050982;28;20444;-50
2022/08/31 13:24:06;;;;;;;2.53;0.93;;;22.50;71.00;;;;;;5051254;28;20588;-50
2022/08/31 13:26:34;;;;;;;4.47;1.17;;;22.60;70.70;;;;;;5050056;28;20451;-50
2022/08/31 13:29:06;;;;;;;1.80;1.13;;;22.30;70.10;;;;;;5050722;28;20880;-49
2022/08/31 13:31:35;;;;;;;2.37;0.93;;;22.70;70.40;;;;;;5033118;28;20460;-49
2022/08/31 13:34:06;;;;;;;1.80;1.00;;;22.80;69.50;;;;;;5050399;28;20433;-50
2022/08/31 13:36:38;;;;;;;2.10;1.33;;;23.20;69.90;;;;;;5050635;28;20475;-50